sensor_id;sensor_type;location;lat;lon;timestamp;P1;durP1;ratioP1;P2;durP2;ratioP2
43986;SDS011;29650;47.378;8.300;2023-03-20T00:00:17;7.82;;;3.75;;
43986;SDS011;29650;47.378;8.300;2023-03-20T00:02:54;12.85;;;6.28;;
43986;SDS011;29650;47.378;8.300;2023-03-20T00:05:22;9.80;;;4.53;;
43986;SDS011;29650;47.378;8.300;2023-03-20T00:07:50;4.00;;;1.77;;
43986;SDS011;29650;47.378;8.300;2023-03-20T00:10:18;2.03;;;1.80;;
43986;SDS011;29650;47.378;8.300;2023-03-20T00:12:46;4.30;;;2.35;;
43986;SDS011;29650;47.378;8.300;2023-03-20T00:15:24;6.05;;;2.88;;
43986;SDS011;29650;47.378;8.300;2023-03-20T00:17:55;8.35;;;3.20;;
43986;SDS011;29650;47.378;8.300;2023-03-20T00:20:22;6.35;;;2.97;;
43986;SDS011;29650;47.378;8.300;2023-03-20T00:22:50;8.02;;;4.22;;
43986;SDS011;29650;47.378;8.300;2023-03-20T00:25:18;6.32;;;3.20;;
43986;SDS011;29650;47.378;8.300;2023-03-20T00:27:47;3.88;;;2.33;;
43986;SDS011;29650;47.378;8.300;2023-03-20T00:30:17;2.40;;;1.85;;
43986;SDS011;29650;47.378;8.300;2023-03-20T00:32:47;2.35;;;1.83;;
43986;SDS011;29650;47.378;8.300;2023-03-20T00:35:18;5.25;;;1.92;;
43986;SDS011;29650;47.378;8.300;2023-03-20T00:37:47;3.03;;;2.10;;
43986;SDS011;29650;47.378;8.300;2023-03-20T00:40:14;2.33;;;1.90;;
43986;SDS011;29650;47.378;8.300;2023-03-20T00:42:42;3.20;;;2.20;;
43986;SDS011;29650;47.378;8.300;2023-03-20T00:45:12;2.45;;;1.90;;
43986;SDS011;29650;47.378;8.300;2023-03-20T00:47:41;3.22;;;2.28;;
43986;SDS011;29650;47.378;8.300;2023-03-20T00:50:13;2.40;;;2.10;;
43986;SDS011;29650;47.378;8.300;2023-03-20T00:52:43;3.58;;;2.20;;
43986;SDS011;29650;47.378;8.300;2023-03-20T00:55:11;2.67;;;2.40;;
43986;SDS011;29650;47.378;8.300;2023-03-20T00:57:39;3.63;;;1.95;;
43986;SDS011;29650;47.378;8.300;2023-03-20T01:00:19;3.13;;;2.30;;
43986;SDS011;29650;47.378;8.300;2023-03-20T01:02:49;1.80;;;1.67;;
43986;SDS011;29650;47.378;8.300;2023-03-20T01:05:17;3.70;;;1.92;;
43986;SDS011;29650;47.378;8.300;2023-03-20T01:07:45;2.08;;;1.65;;
43986;SDS011;29650;47.378;8.300;2023-03-20T01:10:13;2.40;;;1.73;;
43986;SDS011;29650;47.378;8.300;2023-03-20T01:12:40;1.80;;;1.63;;
43986;SDS011;29650;47.378;8.300;2023-03-20T01:15:16;2.95;;;2.25;;
43986;SDS011;29650;47.378;8.300;2023-03-20T01:17:46;2.30;;;2.10;;
43986;SDS011;29650;47.378;8.300;2023-03-20T01:20:14;5.15;;;2.42;;
43986;SDS011;29650;47.378;8.300;2023-03-20T01:22:50;3.80;;;2.10;;
43986;SDS011;29650;47.378;8.300;2023-03-20T01:25:17;2.80;;;2.22;;
43986;SDS011;29650;47.378;8.300;2023-03-20T01:27:45;2.70;;;2.00;;
43986;SDS011;29650;47.378;8.300;2023-03-20T01:30:16;3.13;;;2.42;;
43986;SDS011;29650;47.378;8.300;2023-03-20T01:32:45;2.75;;;2.40;;
43986;SDS011;29650;47.378;8.300;2023-03-20T01:35:13;2.83;;;2.00;;
43986;SDS011;29650;47.378;8.300;2023-03-20T01:37:41;4.05;;;2.40;;
43986;SDS011;29650;47.378;8.300;2023-03-20T01:40:15;2.53;;;1.80;;
43986;SDS011;29650;47.378;8.300;2023-03-20T01:42:51;4.63;;;2.30;;
43986;SDS011;29650;47.378;8.300;2023-03-20T01:45:20;2.33;;;1.88;;
43986;SDS011;29650;47.378;8.300;2023-03-20T01:47:49;2.33;;;2.13;;
43986;SDS011;29650;47.378;8.300;2023-03-20T01:50:18;2.45;;;1.63;;
43986;SDS011;29650;47.378;8.300;2023-03-20T01:52:51;2.60;;;2.25;;
43986;SDS011;29650;47.378;8.300;2023-03-20T01:55:23;2.47;;;2.08;;
43986;SDS011;29650;47.378;8.300;2023-03-20T01:57:50;3.80;;;2.67;;
43986;SDS011;29650;47.378;8.300;2023-03-20T02:00:20;4.95;;;2.25;;
43986;SDS011;29650;47.378;8.300;2023-03-20T02:02:47;5.38;;;3.05;;
43986;SDS011;29650;47.378;8.300;2023-03-20T02:05:16;2.92;;;2.33;;
43986;SDS011;29650;47.378;8.300;2023-03-20T02:07:46;5.05;;;2.42;;
43986;SDS011;29650;47.378;8.300;2023-03-20T02:10:18;3.00;;;2.05;;
43986;SDS011;29650;47.378;8.300;2023-03-20T02:12:47;10.40;;;2.70;;
43986;SDS011;29650;47.378;8.300;2023-03-20T02:15:14;3.10;;;2.30;;
43986;SDS011;29650;47.378;8.300;2023-03-20T02:17:43;3.97;;;2.20;;
43986;SDS011;29650;47.378;8.300;2023-03-20T02:20:13;2.15;;;1.92;;
43986;SDS011;29650;47.378;8.300;2023-03-20T02:29:04;3.38;;;2.80;;
43986;SDS011;29650;47.378;8.300;2023-03-20T02:38:31;3.55;;;2.75;;
43986;SDS011;29650;47.378;8.300;2023-03-20T02:41:20;4.57;;;3.03;;
43986;SDS011;29650;47.378;8.300;2023-03-20T02:43:52;5.22;;;3.13;;
43986;SDS011;29650;47.378;8.300;2023-03-20T02:46:28;3.03;;;2.65;;
43986;SDS011;29650;47.378;8.300;2023-03-20T02:49:02;3.92;;;2.45;;
43986;SDS011;29650;47.378;8.300;2023-03-20T02:51:36;6.18;;;2.22;;
43986;SDS011;29650;47.378;8.300;2023-03-20T02:54:09;2.95;;;2.50;;
43986;SDS011;29650;47.378;8.300;2023-03-20T02:56:45;3.63;;;2.85;;
43986;SDS011;29650;47.378;8.300;2023-03-20T02:59:19;2.90;;;2.42;;
43986;SDS011;29650;47.378;8.300;2023-03-20T03:01:53;4.15;;;2.90;;
43986;SDS011;29650;47.378;8.300;2023-03-20T03:04:25;3.28;;;2.90;;
43986;SDS011;29650;47.378;8.300;2023-03-20T03:06:55;3.92;;;2.72;;
43986;SDS011;29650;47.378;8.300;2023-03-20T03:09:26;3.17;;;2.45;;
43986;SDS011;29650;47.378;8.300;2023-03-20T03:11:58;3.53;;;2.75;;
43986;SDS011;29650;47.378;8.300;2023-03-20T03:14:29;3.35;;;2.53;;
43986;SDS011;29650;47.378;8.300;2023-03-20T03:17:01;3.95;;;3.00;;
43986;SDS011;29650;47.378;8.300;2023-03-20T03:19:31;4.45;;;3.25;;
43986;SDS011;29650;47.378;8.300;2023-03-20T03:22:01;6.25;;;2.78;;
43986;SDS011;29650;47.378;8.300;2023-03-20T03:24:31;4.45;;;3.00;;
43986;SDS011;29650;47.378;8.300;2023-03-20T03:27:00;3.38;;;2.70;;
43986;SDS011;29650;47.378;8.300;2023-03-20T03:29:32;3.97;;;3.20;;
43986;SDS011;29650;47.378;8.300;2023-03-20T03:32:02;3.55;;;2.65;;
43986;SDS011;29650;47.378;8.300;2023-03-20T03:34:32;3.13;;;2.47;;
43986;SDS011;29650;47.378;8.300;2023-03-20T03:37:03;4.18;;;2.55;;
43986;SDS011;29650;47.378;8.300;2023-03-20T03:39:39;5.50;;;2.88;;
43986;SDS011;29650;47.378;8.300;2023-03-20T03:42:13;6.25;;;2.97;;
43986;SDS011;29650;47.378;8.300;2023-03-20T03:44:50;4.13;;;2.85;;
43986;SDS011;29650;47.378;8.300;2023-03-20T03:47:22;3.30;;;2.45;;
43986;SDS011;29650;47.378;8.300;2023-03-20T03:49:55;3.10;;;2.50;;
43986;SDS011;29650;47.378;8.300;2023-03-20T03:52:27;4.03;;;2.85;;
43986;SDS011;29650;47.378;8.300;2023-03-20T03:54:58;3.42;;;2.75;;
43986;SDS011;29650;47.378;8.300;2023-03-20T03:57:28;6.10;;;2.72;;
43986;SDS011;29650;47.378;8.300;2023-03-20T03:59:59;2.47;;;2.17;;
43986;SDS011;29650;47.378;8.300;2023-03-20T04:02:30;4.85;;;3.00;;
43986;SDS011;29650;47.378;8.300;2023-03-20T04:04:58;4.55;;;3.75;;
43986;SDS011;29650;47.378;8.300;2023-03-20T04:07:28;4.07;;;3.00;;
43986;SDS011;29650;47.378;8.300;2023-03-20T04:09:55;4.80;;;3.63;;
43986;SDS011;29650;47.378;8.300;2023-03-20T04:12:31;5.38;;;4.18;;
43986;SDS011;29650;47.378;8.300;2023-03-20T04:15:00;5.85;;;4.05;;
43986;SDS011;29650;47.378;8.300;2023-03-20T04:17:27;7.38;;;4.30;;
43986;SDS011;29650;47.378;8.300;2023-03-20T04:19:54;7.00;;;5.38;;
43986;SDS011;29650;47.378;8.300;2023-03-20T04:22:21;6.15;;;4.47;;
43986;SDS011;29650;47.378;8.300;2023-03-20T04:24:48;7.78;;;4.63;;
43986;SDS011;29650;47.378;8.300;2023-03-20T04:27:16;8.95;;;5.85;;
43986;SDS011;29650;47.378;8.300;2023-03-20T04:29:43;10.95;;;6.78;;
43986;SDS011;29650;47.378;8.300;2023-03-20T04:32:10;10.00;;;6.63;;
43986;SDS011;29650;47.378;8.300;2023-03-20T04:34:37;10.65;;;6.78;;
43986;SDS011;29650;47.378;8.300;2023-03-20T04:37:04;11.10;;;6.93;;
43986;SDS011;29650;47.378;8.300;2023-03-20T04:39:32;8.77;;;5.95;;
43986;SDS011;29650;47.378;8.300;2023-03-20T04:42:00;10.02;;;6.70;;
43986;SDS011;29650;47.378;8.300;2023-03-20T04:44:29;9.82;;;6.38;;
43986;SDS011;29650;47.378;8.300;2023-03-20T04:46:56;8.88;;;6.45;;
43986;SDS011;29650;47.378;8.300;2023-03-20T04:49:23;9.85;;;6.53;;
43986;SDS011;29650;47.378;8.300;2023-03-20T04:51:50;11.20;;;6.82;;
43986;SDS011;29650;47.378;8.300;2023-03-20T04:54:16;8.02;;;5.57;;
43986;SDS011;29650;47.378;8.300;2023-03-20T04:56:43;9.38;;;6.38;;
43986;SDS011;29650;47.378;8.300;2023-03-20T04:59:10;8.23;;;6.22;;
43986;SDS011;29650;47.378;8.300;2023-03-20T05:01:38;7.72;;;5.22;;
43986;SDS011;29650;47.378;8.300;2023-03-20T05:04:05;8.70;;;5.60;;
43986;SDS011;29650;47.378;8.300;2023-03-20T05:06:32;7.60;;;5.80;;
43986;SDS011;29650;47.378;8.300;2023-03-20T05:09:00;9.35;;;6.10;;
43986;SDS011;29650;47.378;8.300;2023-03-20T05:11:27;8.88;;;6.35;;
43986;SDS011;29650;47.378;8.300;2023-03-20T05:13:54;9.70;;;5.75;;
43986;SDS011;29650;47.378;8.300;2023-03-20T05:16:21;10.13;;;6.28;;
43986;SDS011;29650;47.378;8.300;2023-03-20T05:18:49;9.80;;;5.85;;
43986;SDS011;29650;47.378;8.300;2023-03-20T05:21:16;7.40;;;5.90;;
43986;SDS011;29650;47.378;8.300;2023-03-20T05:23:43;10.10;;;5.32;;
43986;SDS011;29650;47.378;8.300;2023-03-20T05:26:10;8.32;;;6.05;;
43986;SDS011;29650;47.378;8.300;2023-03-20T05:28:37;8.80;;;6.28;;
43986;SDS011;29650;47.378;8.300;2023-03-20T05:31:04;7.00;;;4.90;;
43986;SDS011;29650;47.378;8.300;2023-03-20T05:33:31;7.63;;;5.25;;
43986;SDS011;29650;47.378;8.300;2023-03-20T05:36:00;11.35;;;5.97;;
43986;SDS011;29650;47.378;8.300;2023-03-20T05:38:27;6.88;;;5.13;;
43986;SDS011;29650;47.378;8.300;2023-03-20T05:40:57;7.72;;;4.88;;
43986;SDS011;29650;47.378;8.300;2023-03-20T05:43:24;11.20;;;5.30;;
43986;SDS011;29650;47.378;8.300;2023-03-20T05:45:53;7.15;;;5.28;;
43986;SDS011;29650;47.378;8.300;2023-03-20T05:48:20;7.50;;;5.65;;
43986;SDS011;29650;47.378;8.300;2023-03-20T05:50:47;10.02;;;6.93;;
43986;SDS011;29650;47.378;8.300;2023-03-20T05:53:15;12.07;;;7.22;;
43986;SDS011;29650;47.378;8.300;2023-03-20T05:55:42;9.50;;;6.28;;
43986;SDS011;29650;47.378;8.300;2023-03-20T05:58:09;11.80;;;7.00;;
43986;SDS011;29650;47.378;8.300;2023-03-20T06:00:37;9.73;;;6.07;;
43986;SDS011;29650;47.378;8.300;2023-03-20T06:03:04;10.05;;;6.40;;
43986;SDS011;29650;47.378;8.300;2023-03-20T06:05:32;9.68;;;6.32;;
43986;SDS011;29650;47.378;8.300;2023-03-20T06:07:59;10.15;;;5.07;;
43986;SDS011;29650;47.378;8.300;2023-03-20T06:10:27;9.45;;;6.00;;
43986;SDS011;29650;47.378;8.300;2023-03-20T06:12:55;12.27;;;6.82;;
43986;SDS011;29650;47.378;8.300;2023-03-20T06:15:22;13.77;;;6.97;;
43986;SDS011;29650;47.378;8.300;2023-03-20T06:17:49;11.43;;;7.30;;
43986;SDS011;29650;47.378;8.300;2023-03-20T06:20:16;12.48;;;7.22;;
43986;SDS011;29650;47.378;8.300;2023-03-20T06:22:44;13.55;;;7.50;;
43986;SDS011;29650;47.378;8.300;2023-03-20T06:25:11;15.52;;;9.50;;
43986;SDS011;29650;47.378;8.300;2023-03-20T06:27:39;16.20;;;9.18;;
43986;SDS011;29650;47.378;8.300;2023-03-20T06:30:06;12.90;;;8.10;;
43986;SDS011;29650;47.378;8.300;2023-03-20T06:32:34;13.57;;;8.55;;
43986;SDS011;29650;47.378;8.300;2023-03-20T06:35:01;13.25;;;8.20;;
43986;SDS011;29650;47.378;8.300;2023-03-20T06:37:29;11.17;;;7.60;;
43986;SDS011;29650;47.378;8.300;2023-03-20T06:39:56;10.75;;;7.03;;
43986;SDS011;29650;47.378;8.300;2023-03-20T06:42:23;11.63;;;6.47;;
43986;SDS011;29650;47.378;8.300;2023-03-20T06:44:52;11.82;;;7.13;;
43986;SDS011;29650;47.378;8.300;2023-03-20T06:47:19;11.27;;;6.78;;
43986;SDS011;29650;47.378;8.300;2023-03-20T06:49:45;9.50;;;6.28;;
43986;SDS011;29650;47.378;8.300;2023-03-20T06:52:13;9.48;;;6.75;;
43986;SDS011;29650;47.378;8.300;2023-03-20T06:57:09;9.85;;;6.53;;
43986;SDS011;29650;47.378;8.300;2023-03-20T06:59:36;8.80;;;5.78;;
43986;SDS011;29650;47.378;8.300;2023-03-20T07:02:05;9.02;;;5.60;;
43986;SDS011;29650;47.378;8.300;2023-03-20T07:04:32;12.63;;;6.57;;
43986;SDS011;29650;47.378;8.300;2023-03-20T07:06:59;6.68;;;4.85;;
43986;SDS011;29650;47.378;8.300;2023-03-20T07:09:26;8.55;;;5.75;;
43986;SDS011;29650;47.378;8.300;2023-03-20T07:11:53;9.32;;;6.20;;
43986;SDS011;29650;47.378;8.300;2023-03-20T07:14:20;10.02;;;5.78;;
43986;SDS011;29650;47.378;8.300;2023-03-20T07:16:47;9.15;;;5.63;;
43986;SDS011;29650;47.378;8.300;2023-03-20T07:19:16;8.48;;;5.75;;
43986;SDS011;29650;47.378;8.300;2023-03-20T07:21:43;6.95;;;5.07;;
43986;SDS011;29650;47.378;8.300;2023-03-20T07:24:10;7.60;;;5.05;;
43986;SDS011;29650;47.378;8.300;2023-03-20T07:26:37;6.28;;;4.55;;
43986;SDS011;29650;47.378;8.300;2023-03-20T07:29:05;6.00;;;4.00;;
43986;SDS011;29650;47.378;8.300;2023-03-20T07:31:32;5.13;;;4.00;;
43986;SDS011;29650;47.378;8.300;2023-03-20T07:33:59;5.40;;;4.03;;
43986;SDS011;29650;47.378;8.300;2023-03-20T07:36:27;7.07;;;4.93;;
43986;SDS011;29650;47.378;8.300;2023-03-20T07:38:54;5.68;;;3.83;;
43986;SDS011;29650;47.378;8.300;2023-03-20T07:41:21;6.35;;;3.40;;
43986;SDS011;29650;47.378;8.300;2023-03-20T07:43:48;7.10;;;3.45;;
43986;SDS011;29650;47.378;8.300;2023-03-20T07:46:15;5.75;;;3.47;;
43986;SDS011;29650;47.378;8.300;2023-03-20T07:48:42;4.18;;;3.33;;
43986;SDS011;29650;47.378;8.300;2023-03-20T07:51:09;6.03;;;4.05;;
43986;SDS011;29650;47.378;8.300;2023-03-20T07:53:37;8.80;;;4.30;;
43986;SDS011;29650;47.378;8.300;2023-03-20T07:56:04;6.55;;;4.22;;
43986;SDS011;29650;47.378;8.300;2023-03-20T07:58:32;6.20;;;4.28;;
43986;SDS011;29650;47.378;8.300;2023-03-20T08:00:58;7.93;;;4.40;;
43986;SDS011;29650;47.378;8.300;2023-03-20T08:03:25;5.75;;;4.53;;
43986;SDS011;29650;47.378;8.300;2023-03-20T08:05:52;7.85;;;5.10;;
43986;SDS011;29650;47.378;8.300;2023-03-20T08:08:20;7.82;;;4.13;;
43986;SDS011;29650;47.378;8.300;2023-03-20T08:10:48;7.05;;;4.50;;
43986;SDS011;29650;47.378;8.300;2023-03-20T08:13:15;6.30;;;3.47;;
43986;SDS011;29650;47.378;8.300;2023-03-20T08:15:42;5.47;;;3.65;;
43986;SDS011;29650;47.378;8.300;2023-03-20T08:18:09;5.22;;;3.35;;
43986;SDS011;29650;47.378;8.300;2023-03-20T08:20:36;4.45;;;3.50;;
43986;SDS011;29650;47.378;8.300;2023-03-20T08:23:03;4.28;;;3.13;;
43986;SDS011;29650;47.378;8.300;2023-03-20T08:25:30;4.75;;;3.10;;
43986;SDS011;29650;47.378;8.300;2023-03-20T08:27:59;3.17;;;2.80;;
43986;SDS011;29650;47.378;8.300;2023-03-20T08:30:26;4.72;;;3.38;;
43986;SDS011;29650;47.378;8.300;2023-03-20T08:32:53;4.05;;;3.22;;
43986;SDS011;29650;47.378;8.300;2023-03-20T08:35:20;2.88;;;2.38;;
43986;SDS011;29650;47.378;8.300;2023-03-20T08:37:47;3.53;;;2.63;;
43986;SDS011;29650;47.378;8.300;2023-03-20T08:40:14;3.83;;;2.60;;
43986;SDS011;29650;47.378;8.300;2023-03-20T08:42:42;3.42;;;2.40;;
43986;SDS011;29650;47.378;8.300;2023-03-20T08:45:10;2.85;;;2.03;;
43986;SDS011;29650;47.378;8.300;2023-03-20T08:47:37;2.58;;;2.10;;
43986;SDS011;29650;47.378;8.300;2023-03-20T08:50:05;3.30;;;2.42;;
43986;SDS011;29650;47.378;8.300;2023-03-20T08:52:32;6.20;;;2.83;;
43986;SDS011;29650;47.378;8.300;2023-03-20T08:54:59;2.78;;;2.00;;
43986;SDS011;29650;47.378;8.300;2023-03-20T08:57:26;2.65;;;1.60;;
43986;SDS011;29650;47.378;8.300;2023-03-20T08:59:53;1.75;;;1.30;;
43986;SDS011;29650;47.378;8.300;2023-03-20T09:02:21;1.83;;;1.42;;
43986;SDS011;29650;47.378;8.300;2023-03-20T09:04:48;7.25;;;1.75;;
43986;SDS011;29650;47.378;8.300;2023-03-20T09:07:15;1.63;;;1.20;;
43986;SDS011;29650;47.378;8.300;2023-03-20T09:09:42;3.13;;;1.00;;
43986;SDS011;29650;47.378;8.300;2023-03-20T09:12:09;1.55;;;1.30;;
43986;SDS011;29650;47.378;8.300;2023-03-20T09:14:36;1.40;;;1.30;;
43986;SDS011;29650;47.378;8.300;2023-03-20T09:17:03;2.13;;;1.50;;
43986;SDS011;29650;47.378;8.300;2023-03-20T09:19:32;2.00;;;0.90;;
43986;SDS011;29650;47.378;8.300;2023-03-20T09:21:59;1.20;;;1.10;;
43986;SDS011;29650;47.378;8.300;2023-03-20T09:24:26;2.38;;;1.52;;
43986;SDS011;29650;47.378;8.300;2023-03-20T09:26:53;2.13;;;1.40;;
43986;SDS011;29650;47.378;8.300;2023-03-20T09:29:20;1.52;;;1.10;;
43986;SDS011;29650;47.378;8.300;2023-03-20T09:31:47;1.38;;;1.27;;
43986;SDS011;29650;47.378;8.300;2023-03-20T09:34:14;2.67;;;1.42;;
43986;SDS011;29650;47.378;8.300;2023-03-20T09:36:42;1.40;;;1.30;;
43986;SDS011;29650;47.378;8.300;2023-03-20T09:39:09;2.00;;;1.15;;
43986;SDS011;29650;47.378;8.300;2023-03-20T09:41:36;1.90;;;1.48;;
43986;SDS011;29650;47.378;8.300;2023-03-20T09:44:08;2.30;;;1.48;;
43986;SDS011;29650;47.378;8.300;2023-03-20T09:46:47;1.38;;;1.20;;
43986;SDS011;29650;47.378;8.300;2023-03-20T09:49:26;1.67;;;1.30;;
43986;SDS011;29650;47.378;8.300;2023-03-20T09:54:48;2.05;;;1.10;;
43986;SDS011;29650;47.378;8.300;2023-03-20T09:57:19;4.00;;;1.20;;
43986;SDS011;29650;47.378;8.300;2023-03-20T09:59:50;3.25;;;1.02;;
43986;SDS011;29650;47.378;8.300;2023-03-20T10:02:34;2.22;;;1.02;;
43986;SDS011;29650;47.378;8.300;2023-03-20T10:05:08;1.42;;;1.15;;
43986;SDS011;29650;47.378;8.300;2023-03-20T10:07:45;5.07;;;1.00;;
43986;SDS011;29650;47.378;8.300;2023-03-20T10:10:13;1.98;;;1.10;;
43986;SDS011;29650;47.378;8.300;2023-03-20T10:12:56;4.15;;;1.20;;
43986;SDS011;29650;47.378;8.300;2023-03-20T10:15:39;2.22;;;1.10;;
43986;SDS011;29650;47.378;8.300;2023-03-20T10:18:13;1.30;;;0.50;;
43986;SDS011;29650;47.378;8.300;2023-03-20T10:20:47;1.95;;;0.52;;
43986;SDS011;29650;47.378;8.300;2023-03-20T10:23:23;0.63;;;0.50;;
43986;SDS011;29650;47.378;8.300;2023-03-20T10:25:55;1.35;;;0.40;;
43986;SDS011;29650;47.378;8.300;2023-03-20T10:28:29;2.38;;;0.50;;
43986;SDS011;29650;47.378;8.300;2023-03-20T10:31:03;0.70;;;0.50;;
43986;SDS011;29650;47.378;8.300;2023-03-20T10:33:46;1.10;;;0.70;;
43986;SDS011;29650;47.378;8.300;2023-03-20T10:36:29;0.80;;;0.73;;
43986;SDS011;29650;47.378;8.300;2023-03-20T10:39:12;1.48;;;0.80;;
43986;SDS011;29650;47.378;8.300;2023-03-20T10:41:46;2.30;;;0.77;;
43986;SDS011;29650;47.378;8.300;2023-03-20T10:44:20;0.50;;;0.50;;
43986;SDS011;29650;47.378;8.300;2023-03-20T10:46:54;1.15;;;0.57;;
43986;SDS011;29650;47.378;8.300;2023-03-20T10:51:57;0.30;;;0.25;;
43986;SDS011;29650;47.378;8.300;2023-03-20T10:54:30;1.83;;;0.55;;
43986;SDS011;29650;47.378;8.300;2023-03-20T10:57:00;0.95;;;0.60;;
43986;SDS011;29650;47.378;8.300;2023-03-20T10:59:31;2.88;;;0.40;;
43986;SDS011;29650;47.378;8.300;2023-03-20T11:02:07;0.47;;;0.47;;
43986;SDS011;29650;47.378;8.300;2023-03-20T11:04:36;0.50;;;0.50;;
43986;SDS011;29650;47.378;8.300;2023-03-20T11:07:05;0.77;;;0.35;;
43986;SDS011;29650;47.378;8.300;2023-03-20T11:09:40;1.10;;;0.60;;
43986;SDS011;29650;47.378;8.300;2023-03-20T11:12:12;1.35;;;0.77;;
43986;SDS011;29650;47.378;8.300;2023-03-20T11:14:42;1.25;;;0.70;;
43986;SDS011;29650;47.378;8.300;2023-03-20T11:17:09;1.05;;;0.60;;
43986;SDS011;29650;47.378;8.300;2023-03-20T11:19:39;1.00;;;0.73;;
43986;SDS011;29650;47.378;8.300;2023-03-20T11:22:07;0.32;;;0.30;;
43986;SDS011;29650;47.378;8.300;2023-03-20T11:24:49;0.52;;;0.52;;
43986;SDS011;29650;47.378;8.300;2023-03-20T11:27:18;0.45;;;0.40;;
43986;SDS011;29650;47.378;8.300;2023-03-20T11:29:50;0.80;;;0.50;;
43986;SDS011;29650;47.378;8.300;2023-03-20T11:32:21;2.30;;;0.73;;
43986;SDS011;29650;47.378;8.300;2023-03-20T11:34:53;0.90;;;0.52;;
43986;SDS011;29650;47.378;8.300;2023-03-20T11:37:22;1.38;;;0.70;;
43986;SDS011;29650;47.378;8.300;2023-03-20T11:39:56;0.68;;;0.40;;
43986;SDS011;29650;47.378;8.300;2023-03-20T11:42:25;0.17;;;0.17;;
43986;SDS011;29650;47.378;8.300;2023-03-20T11:44:58;0.43;;;0.43;;
43986;SDS011;29650;47.378;8.300;2023-03-20T11:47:27;0.35;;;0.35;;
43986;SDS011;29650;47.378;8.300;2023-03-20T11:49:58;0.28;;;0.28;;
43986;SDS011;29650;47.378;8.300;2023-03-20T11:52:27;1.02;;;0.32;;
43986;SDS011;29650;47.378;8.300;2023-03-20T11:55:00;1.58;;;0.70;;
43986;SDS011;29650;47.378;8.300;2023-03-20T11:57:32;0.40;;;0.40;;
43986;SDS011;29650;47.378;8.300;2023-03-20T12:00:03;1.17;;;0.50;;
43986;SDS011;29650;47.378;8.300;2023-03-20T12:02:32;0.60;;;0.50;;
43986;SDS011;29650;47.378;8.300;2023-03-20T12:05:01;0.85;;;0.50;;
43986;SDS011;29650;47.378;8.300;2023-03-20T12:07:44;1.17;;;0.63;;
43986;SDS011;29650;47.378;8.300;2023-03-20T12:10:15;1.85;;;0.57;;
43986;SDS011;29650;47.378;8.300;2023-03-20T12:12:44;0.95;;;0.50;;
43986;SDS011;29650;47.378;8.300;2023-03-20T12:15:17;1.75;;;0.45;;
43986;SDS011;29650;47.378;8.300;2023-03-20T12:17:51;0.50;;;0.50;;
43986;SDS011;29650;47.378;8.300;2023-03-20T12:20:28;0.30;;;0.30;;
43986;SDS011;29650;47.378;8.300;2023-03-20T12:25:34;1.60;;;0.50;;
43986;SDS011;29650;47.378;8.300;2023-03-20T12:28:10;0.40;;;0.40;;
43986;SDS011;29650;47.378;8.300;2023-03-20T12:30:52;2.70;;;0.40;;
43986;SDS011;29650;47.378;8.300;2023-03-20T12:33:28;1.00;;;0.75;;
43986;SDS011;29650;47.378;8.300;2023-03-20T12:36:03;0.70;;;0.50;;
43986;SDS011;29650;47.378;8.300;2023-03-20T12:38:37;0.75;;;0.45;;
43986;SDS011;29650;47.378;8.300;2023-03-20T12:41:10;2.00;;;0.50;;
43986;SDS011;29650;47.378;8.300;2023-03-20T12:43:46;0.73;;;0.50;;
43986;SDS011;29650;47.378;8.300;2023-03-20T12:46:29;0.75;;;0.40;;
43986;SDS011;29650;47.378;8.300;2023-03-20T12:49:07;1.20;;;0.45;;
43986;SDS011;29650;47.378;8.300;2023-03-20T12:51:49;2.90;;;0.70;;
43986;SDS011;29650;47.378;8.300;2023-03-20T12:54:27;2.45;;;0.70;;
43986;SDS011;29650;47.378;8.300;2023-03-20T12:57:07;0.88;;;0.60;;
43986;SDS011;29650;47.378;8.300;2023-03-20T12:59:48;0.70;;;0.47;;
43986;SDS011;29650;47.378;8.300;2023-03-20T13:02:35;0.68;;;0.40;;
43986;SDS011;29650;47.378;8.300;2023-03-20T13:05:20;1.88;;;0.43;;
43986;SDS011;29650;47.378;8.300;2023-03-20T13:08:06;1.90;;;0.40;;
43986;SDS011;29650;47.378;8.300;2023-03-20T13:10:57;1.42;;;0.40;;
43986;SDS011;29650;47.378;8.300;2023-03-20T13:13:32;0.43;;;0.43;;
43986;SDS011;29650;47.378;8.300;2023-03-20T13:16:09;1.75;;;0.70;;
43986;SDS011;29650;47.378;8.300;2023-03-20T13:18:48;0.95;;;0.50;;
43986;SDS011;29650;47.378;8.300;2023-03-20T13:21:24;0.82;;;0.40;;
43986;SDS011;29650;47.378;8.300;2023-03-20T13:24:00;1.85;;;0.60;;
43986;SDS011;29650;47.378;8.300;2023-03-20T13:26:38;0.80;;;0.63;;
43986;SDS011;29650;47.378;8.300;2023-03-20T13:29:13;1.30;;;0.50;;
43986;SDS011;29650;47.378;8.300;2023-03-20T13:31:47;2.95;;;0.70;;
43986;SDS011;29650;47.378;8.300;2023-03-20T13:34:24;0.50;;;0.30;;
43986;SDS011;29650;47.378;8.300;2023-03-20T13:39:44;0.40;;;0.40;;
43986;SDS011;29650;47.378;8.300;2023-03-20T13:42:16;0.43;;;0.30;;
43986;SDS011;29650;47.378;8.300;2023-03-20T13:44:47;0.60;;;0.50;;
43986;SDS011;29650;47.378;8.300;2023-03-20T13:47:17;0.73;;;0.60;;
43986;SDS011;29650;47.378;8.300;2023-03-20T13:49:49;0.60;;;0.60;;
43986;SDS011;29650;47.378;8.300;2023-03-20T13:52:24;0.52;;;0.30;;
43986;SDS011;29650;47.378;8.300;2023-03-20T13:55:04;0.43;;;0.40;;
43986;SDS011;29650;47.378;8.300;2023-03-20T13:57:48;0.98;;;0.50;;
43986;SDS011;29650;47.378;8.300;2023-03-20T14:00:34;0.70;;;0.50;;
43986;SDS011;29650;47.378;8.300;2023-03-20T14:03:09;0.40;;;0.40;;
43986;SDS011;29650;47.378;8.300;2023-03-20T14:05:42;0.50;;;0.40;;
43986;SDS011;29650;47.378;8.300;2023-03-20T14:08:20;0.30;;;0.30;;
43986;SDS011;29650;47.378;8.300;2023-03-20T14:11:04;0.50;;;0.40;;
43986;SDS011;29650;47.378;8.300;2023-03-20T14:16:26;1.73;;;0.70;;
43986;SDS011;29650;47.378;8.300;2023-03-20T14:21:32;0.30;;;0.30;;
43986;SDS011;29650;47.378;8.300;2023-03-20T14:24:01;1.45;;;0.63;;
43986;SDS011;29650;47.378;8.300;2023-03-20T14:26:30;0.45;;;0.45;;
43986;SDS011;29650;47.378;8.300;2023-03-20T14:29:18;0.73;;;0.63;;
43986;SDS011;29650;47.378;8.300;2023-03-20T14:31:48;0.88;;;0.50;;
43986;SDS011;29650;47.378;8.300;2023-03-20T14:34:17;0.80;;;0.57;;
43986;SDS011;29650;47.378;8.300;2023-03-20T14:36:55;1.67;;;0.50;;
43986;SDS011;29650;47.378;8.300;2023-03-20T14:39:26;3.05;;;0.60;;
43986;SDS011;29650;47.378;8.300;2023-03-20T14:42:04;0.68;;;0.50;;
43986;SDS011;29650;47.378;8.300;2023-03-20T14:44:48;0.85;;;0.65;;
43986;SDS011;29650;47.378;8.300;2023-03-20T14:47:24;0.85;;;0.45;;
43986;SDS011;29650;47.378;8.300;2023-03-20T14:50:02;0.45;;;0.40;;
43986;SDS011;29650;47.378;8.300;2023-03-20T14:52:40;0.50;;;0.45;;
43986;SDS011;29650;47.378;8.300;2023-03-20T14:55:26;0.60;;;0.40;;
43986;SDS011;29650;47.378;8.300;2023-03-20T14:58:00;1.10;;;0.40;;
43986;SDS011;29650;47.378;8.300;2023-03-20T15:00:32;0.75;;;0.20;;
43986;SDS011;29650;47.378;8.300;2023-03-20T15:03:03;0.65;;;0.32;;
43986;SDS011;29650;47.378;8.300;2023-03-20T15:05:34;0.82;;;0.47;;
43986;SDS011;29650;47.378;8.300;2023-03-20T15:08:03;0.30;;;0.30;;
43986;SDS011;29650;47.378;8.300;2023-03-20T15:10:33;0.75;;;0.68;;
43986;SDS011;29650;47.378;8.300;2023-03-20T15:13:03;1.57;;;0.43;;
43986;SDS011;29650;47.378;8.300;2023-03-20T15:15:32;0.43;;;0.30;;
43986;SDS011;29650;47.378;8.300;2023-03-20T15:18:05;1.30;;;0.50;;
43986;SDS011;29650;47.378;8.300;2023-03-20T15:20:37;0.52;;;0.40;;
43986;SDS011;29650;47.378;8.300;2023-03-20T15:23:04;0.30;;;0.30;;
43986;SDS011;29650;47.378;8.300;2023-03-20T15:25:34;0.95;;;0.35;;
43986;SDS011;29650;47.378;8.300;2023-03-20T15:28:04;0.40;;;0.40;;
43986;SDS011;29650;47.378;8.300;2023-03-20T15:30:31;1.98;;;0.50;;
43986;SDS011;29650;47.378;8.300;2023-03-20T15:33:01;0.30;;;0.30;;
43986;SDS011;29650;47.378;8.300;2023-03-20T15:35:30;0.57;;;0.40;;
43986;SDS011;29650;47.378;8.300;2023-03-20T15:38:02;0.55;;;0.40;;